Time,TemperatureF,DewpointF,PressureIn,WindDirection,WindDirectionDegrees,WindSpeedMPH,WindSpeedGustMPH,Humidity,HourlyPrecipIn,Conditions,Clouds,dailyrainin,SoftwareType,DateUTC
2013-02-02 00:09:00,31.6,27.0,25.88,NW,312,9.0,12.0,84,0.00,,,0.00,weatherlink.com 1.10,2013-02-02 07:09:00,
2013-02-02 00:25:00,30.9,27.0,25.88,NNW,333,7.0,12.0,86,0.00,,,0.00,weatherlink.com 1.10,2013-02-02 07:25:00,
2013-02-02 00:40:00,30.5,27.0,25.88,NW,313,7.0,12.0,86,0.00,,,0.00,weatherlink.com 1.10,2013-02-02 07:40:00,
2013-02-02 00:55:00,30.2,27.0,25.89,North,4,9.0,13.0,86,0.00,,,0.00,weatherlink.com 1.10,2013-02-02 07:55:00,
2013-02-02 01:10:00,30.0,26.0,25.89,NW,322,5.0,14.0,86,0.00,,,0.00,weatherlink.com 1.10,2013-02-02 08:10:00,
2013-02-02 01:25:00,29.9,26.0,25.90,North,360,8.0,12.0,86,0.00,,,0.00,weatherlink.com 1.10,2013-02-02 08:25:00,
2013-02-02 01:40:00,29.6,26.0,25.91,West,278,8.0,12.0,86,0.00,,,0.00,weatherlink.com 1.10,2013-02-02 08:40:00,
2013-02-02 01:55:00,29.2,25.0,25.91,NW,321,7.0,11.0,85,0.00,,,0.00,weatherlink.com 1.10,2013-02-02 08:55:00,
2013-02-02 02:10:00,28.9,25.0,25.91,NW,325,5.0,12.0,85,0.00,,,0.00,weatherlink.com 1.10,2013-02-02 09:10:00,
2013-02-02 02:25:00,28.7,25.0,25.91,NW,319,6.0,12.0,85,0.00,,,0.00,weatherlink.com 1.10,2013-02-02 09:25:00,
2013-02-02 02:40:00,29.4,25.0,25.91,NW,311,6.0,16.0,84,0.00,,,0.00,weatherlink.com 1.10,2013-02-02 09:40:00,
2013-02-02 02:55:00,30.2,26.0,25.91,WNW,287,9.0,13.0,83,0.00,,,0.00,weatherlink.com 1.10,2013-02-02 09:55:00,
2013-02-02 03:10:00,29.8,26.0,25.91,WNW,287,6.0,14.0,85,0.00,,,0.00,weatherlink.com 1.10,2013-02-02 10:10:00,
2013-02-02 03:25:00,29.6,26.0,25.91,North,11,7.0,15.0,85,0.00,,,0.00,weatherlink.com 1.10,2013-02-02 10:25:00,
2013-02-02 03:40:00,29.6,25.0,25.91,NW,308,9.0,15.0,84,0.00,,,0.00,weatherlink.com 1.10,2013-02-02 10:40:00,
2013-02-02 03:55:00,29.5,25.0,25.91,NW,310,11.0,19.0,83,0.00,,,0.00,weatherlink.com 1.10,2013-02-02 10:55:00,
2013-02-02 04:10:00,28.8,24.0,25.92,NW,314,4.0,16.0,83,0.00,,,0.00,weatherlink.com 1.10,2013-02-02 11:10:00,
2013-02-02 04:25:00,28.9,24.0,25.93,NW,307,8.0,15.0,83,0.00,,,0.00,weatherlink.com 1.10,2013-02-02 11:25:00,
2013-02-02 04:40:00,29.4,24.0,25.93,NNW,327,6.0,15.0,81,0.00,,,0.00,weatherlink.com 1.10,2013-02-02 11:40:00,
2013-02-02 04:55:00,29.4,24.0,25.92,NW,317,7.0,14.0,81,0.00,,,0.00,weatherlink.com 1.10,2013-02-02 11:55:00,
2013-02-02 05:10:00,29.3,24.0,25.92,NW,310,12.0,18.0,81,0.00,,,0.00,weatherlink.com 1.10,2013-02-02 12:10:00,
2013-02-02 05:25:00,29.4,24.0,25.91,NW,308,7.0,19.0,80,0.00,,,0.00,weatherlink.com 1.10,2013-02-02 12:25:00,
2013-02-02 05:40:00,29.6,24.0,25.91,NW,316,12.0,18.0,79,0.00,,,0.00,weatherlink.com 1.10,2013-02-02 12:40:00,
2013-02-02 05:55:00,30.1,24.0,25.91,NNW,335,13.0,19.0,77,0.00,,,0.00,weatherlink.com 1.10,2013-02-02 12:55:00,
2013-02-02 06:10:00,30.8,24.0,25.91,NW,318,11.0,20.0,75,0.00,,,0.00,weatherlink.com 1.10,2013-02-02 13:10:00,
2013-02-02 06:25:00,31.1,24.0,25.92,NW,307,12.0,21.0,75,0.00,,,0.00,weatherlink.com 1.10,2013-02-02 13:25:00,
2013-02-02 06:40:00,31.6,24.0,25.91,WNW,302,11.0,20.0,73,0.00,,,0.00,weatherlink.com 1.10,2013-02-02 13:40:00,
2013-02-02 06:55:00,31.7,24.0,25.92,WNW,302,12.0,22.0,72,0.00,,,0.00,weatherlink.com 1.10,2013-02-02 13:55:00,
2013-02-02 07:10:00,30.9,24.0,25.92,WNW,302,13.0,22.0,74,0.00,,,0.00,weatherlink.com 1.10,2013-02-02 14:10:00,
2013-02-02 07:25:00,30.4,23.0,25.92,NW,304,18.0,26.0,73,0.00,,,0.00,weatherlink.com 1.10,2013-02-02 14:25:00,
2013-02-02 07:40:00,30.6,23.0,25.92,NW,315,16.0,27.0,72,0.00,,,0.00,weatherlink.com 1.10,2013-02-02 14:40:00,
2013-02-02 07:55:00,30.8,23.0,25.92,WNW,287,13.0,23.0,73,0.00,,,0.00,weatherlink.com 1.10,2013-02-02 14:55:00,
2013-02-02 08:10:00,31.6,23.0,25.92,NW,305,12.0,20.0,71,0.00,,,0.00,weatherlink.com 1.10,2013-02-02 15:10:00,
2013-02-02 08:25:00,32.8,24.0,25.92,NW,314,15.0,18.0,69,0.00,,,0.00,weatherlink.com 1.10,2013-02-02 15:25:00,
2013-02-02 08:41:00,34.8,24.0,25.92,WNW,293,18.0,22.0,65,0.00,,,0.00,weatherlink.com 1.10,2013-02-02 15:41:00,
2013-02-02 08:56:00,36.2,25.0,25.93,NW,304,14.0,19.0,64,0.00,,,0.00,weatherlink.com 1.10,2013-02-02 15:56:00,
2013-02-02 09:11:00,36.5,25.0,25.94,NW,304,11.0,17.0,64,0.00,,,0.00,weatherlink.com 1.10,2013-02-02 16:11:00,
2013-02-02 09:26:00,36.8,24.0,25.94,NW,310,9.0,16.0,61,0.00,,,0.00,weatherlink.com 1.10,2013-02-02 16:26:00,
2013-02-02 09:41:00,37.2,25.0,25.94,WNW,302,9.0,16.0,61,0.00,,,0.00,weatherlink.com 1.10,2013-02-02 16:41:00,
2013-02-02 09:56:00,38.7,24.0,25.95,WNW,299,10.0,15.0,56,0.00,,,0.00,weatherlink.com 1.10,2013-02-02 16:56:00,
2013-02-02 10:11:00,40.3,23.0,25.95,WNW,294,13.0,20.0,50,0.00,,,0.00,weatherlink.com 1.10,2013-02-02 17:11:00,
2013-02-02 10:26:00,40.4,22.0,25.95,NNW,334,5.0,24.0,48,0.00,,,0.00,weatherlink.com 1.10,2013-02-02 17:26:00,
2013-02-02 10:41:00,40.8,23.0,25.96,NW,316,6.0,21.0,49,0.00,,,0.00,weatherlink.com 1.10,2013-02-02 17:41:00,
2013-02-02 10:56:00,41.5,23.0,25.96,WNW,302,11.0,22.0,49,0.00,,,0.00,weatherlink.com 1.10,2013-02-02 17:56:00,
2013-02-02 11:11:00,42.2,23.0,25.96,NNW,345,10.0,22.0,47,0.00,,,0.00,weatherlink.com 1.10,2013-02-02 18:11:00,
2013-02-02 11:26:00,42.4,23.0,25.95,NNW,338,11.0,20.0,46,0.00,,,0.00,weatherlink.com 1.10,2013-02-02 18:26:00,
2013-02-02 11:41:00,42.8,23.0,25.95,West,278,8.0,23.0,45,0.00,,,0.00,weatherlink.com 1.10,2013-02-02 18:41:00,
2013-02-02 11:56:00,43.6,23.0,25.94,NW,319,15.0,29.0,44,0.00,,,0.00,weatherlink.com 1.10,2013-02-02 18:56:00,
2013-02-02 12:11:00,44.0,22.0,25.93,North,358,13.0,24.0,41,0.00,,,0.00,weatherlink.com 1.10,2013-02-02 19:11:00,
2013-02-02 12:26:00,44.6,21.0,25.93,WNW,289,9.0,25.0,40,0.00,,,0.00,weatherlink.com 1.10,2013-02-02 19:26:00,
2013-02-02 12:41:00,44.9,21.0,25.92,WNW,284,10.0,28.0,39,0.00,,,0.00,weatherlink.com 1.10,2013-02-02 19:41:00,
2013-02-02 12:56:00,45.5,22.0,25.92,NW,319,11.0,25.0,39,0.00,,,0.00,weatherlink.com 1.10,2013-02-02 19:56:00,
2013-02-02 13:11:00,45.9,20.0,25.92,NW,319,9.0,23.0,35,0.00,,,0.00,weatherlink.com 1.10,2013-02-02 20:11:00,
2013-02-02 13:26:00,46.0,20.0,25.92,WSW,248,12.0,23.0,35,0.00,,,0.00,weatherlink.com 1.10,2013-02-02 20:26:00,
2013-02-02 13:41:00,46.2,18.0,25.92,NNW,328,10.0,26.0,33,0.00,,,0.00,weatherlink.com 1.10,2013-02-02 20:41:00,
2013-02-02 13:56:00,46.1,19.0,25.92,WNW,298,22.0,25.0,34,0.00,,,0.00,weatherlink.com 1.10,2013-02-02 20:56:00,
2013-02-02 14:11:00,46.0,20.0,25.92,NW,322,7.0,33.0,35,0.00,,,0.00,weatherlink.com 1.10,2013-02-02 21:11:00,
2013-02-02 14:26:00,46.2,19.0,25.92,NE,46,17.0,28.0,34,0.00,,,0.00,weatherlink.com 1.10,2013-02-02 21:26:00,
2013-02-02 14:41:00,46.2,18.0,25.92,North,355,21.0,28.0,33,0.00,,,0.00,weatherlink.com 1.10,2013-02-02 21:41:00,
2013-02-02 14:56:00,46.2,18.0,25.93,ENE,75,21.0,28.0,33,0.00,,,0.00,weatherlink.com 1.10,2013-02-02 21:56:00,
2013-02-02 15:11:00,45.9,19.0,25.93,ESE,103,18.0,20.0,34,0.00,,,0.00,weatherlink.com 1.10,2013-02-02 22:11:00,
2013-02-02 15:26:00,45.5,18.0,25.93,NW,324,16.0,24.0,34,0.00,,,0.00,weatherlink.com 1.10,2013-02-02 22:26:00,
2013-02-02 15:41:00,45.1,19.0,25.94,West,280,15.0,26.0,35,0.00,,,0.00,weatherlink.com 1.10,2013-02-02 22:41:00,
2013-02-02 15:56:00,44.6,18.0,25.94,NNW,338,14.0,22.0,35,0.00,,,0.00,weatherlink.com 1.10,2013-02-02 22:56:00,
2013-02-02 16:11:00,44.0,20.0,25.94,NNW,343,10.0,20.0,38,0.00,,,0.00,weatherlink.com 1.10,2013-02-02 23:11:00,
2013-02-02 16:27:00,42.6,20.0,25.95,NNE,32,12.0,20.0,41,0.00,,,0.00,weatherlink.com 1.10,2013-02-02 23:27:00,
2013-02-02 16:41:00,41.3,21.0,25.95,North,353,13.0,21.0,45,0.00,,,0.00,weatherlink.com 1.10,2013-02-02 23:41:00,
2013-02-02 16:56:00,39.8,22.0,25.95,North,6,8.0,15.0,49,0.00,,,0.00,weatherlink.com 1.10,2013-02-02 23:56:00,
2013-02-02 17:11:00,38.3,22.0,25.96,North,352,9.0,13.0,52,0.00,,,0.00,weatherlink.com 1.10,2013-02-03 00:11:00,
2013-02-02 17:27:00,37.0,22.0,25.96,North,349,6.0,10.0,56,0.00,,,0.00,weatherlink.com 1.10,2013-02-03 00:27:00,
2013-02-02 17:42:00,36.1,23.0,25.97,North,360,6.0,8.0,59,0.00,,,0.00,weatherlink.com 1.10,2013-02-03 00:42:00,
2013-02-02 17:57:00,35.3,23.0,25.97,NNW,330,8.0,12.0,61,0.00,,,0.00,weatherlink.com 1.10,2013-02-03 00:57:00,
2013-02-02 18:12:00,34.9,23.0,25.96,NW,304,9.0,14.0,61,0.00,,,0.00,weatherlink.com 1.10,2013-02-03 01:12:00,
2013-02-02 18:27:00,34.0,22.0,25.97,NNE,15,7.0,11.0,63,0.00,,,0.00,weatherlink.com 1.10,2013-02-03 01:27:00,
2013-02-02 18:42:00,33.4,23.0,25.98,NNW,340,6.0,10.0,65,0.00,,,0.00,weatherlink.com 1.10,2013-02-03 01:42:00,
2013-02-02 18:57:00,32.8,22.0,25.97,WNW,297,9.0,12.0,65,0.00,,,0.00,weatherlink.com 1.10,2013-02-03 01:57:00,
2013-02-02 19:12:00,32.8,22.0,25.97,NNW,347,9.0,11.0,65,0.00,,,0.00,weatherlink.com 1.10,2013-02-03 02:12:00,
2013-02-02 19:27:00,32.7,22.0,25.97,NW,321,7.0,10.0,66,0.00,,,0.00,weatherlink.com 1.10,2013-02-03 02:27:00,
2013-02-02 19:42:00,31.9,22.0,25.97,NNW,333,8.0,10.0,67,0.00,,,0.00,weatherlink.com 1.10,2013-02-03 02:42:00,
2013-02-02 19:57:00,31.0,22.0,25.96,NW,315,9.0,12.0,68,0.00,,,0.00,weatherlink.com 1.10,2013-02-03 02:57:00,
2013-02-02 20:12:00,31.2,22.0,25.96,WNW,283,3.0,12.0,69,0.00,,,0.00,weatherlink.com 1.10,2013-02-03 03:12:00,
2013-02-02 20:27:00,31.2,22.0,25.96,NNE,15,4.0,10.0,69,0.00,,,0.00,weatherlink.com 1.10,2013-02-03 03:27:00,
2013-02-02 20:42:00,30.2,22.0,25.96,NW,308,4.0,7.0,70,0.00,,,0.00,weatherlink.com 1.10,2013-02-03 03:42:00,
2013-02-02 20:57:00,27.7,20.0,25.96,North,349,5.0,8.0,73,0.00,,,0.00,weatherlink.com 1.10,2013-02-03 03:57:00,
2013-02-02 21:12:00,27.3,21.0,25.97,West,281,4.0,9.0,76,0.00,,,0.00,weatherlink.com 1.10,2013-02-03 04:12:00,
2013-02-02 21:27:00,27.5,21.0,25.96,WNW,293,5.0,11.0,75,0.00,,,0.00,weatherlink.com 1.10,2013-02-03 04:27:00,
2013-02-02 21:42:00,28.3,21.0,25.96,NW,313,8.0,10.0,74,0.00,,,0.00,weatherlink.com 1.10,2013-02-03 04:42:00,
2013-02-02 21:57:00,28.3,21.0,25.96,WNW,287,6.0,10.0,74,0.00,,,0.00,weatherlink.com 1.10,2013-02-03 04:57:00,
2013-02-02 22:12:00,28.0,21.0,25.96,WNW,282,3.0,5.0,74,0.00,,,0.00,weatherlink.com 1.10,2013-02-03 05:12:00,
2013-02-02 22:27:00,27.9,21.0,25.96,NNW,333,3.0,7.0,74,0.00,,,0.00,weatherlink.com 1.10,2013-02-03 05:27:00,
2013-02-02 22:42:00,27.1,20.0,25.95,NNW,338,2.0,6.0,76,0.00,,,0.00,weatherlink.com 1.10,2013-02-03 05:42:00,
2013-02-02 22:57:00,26.4,20.0,25.95,West,278,7.0,9.0,77,0.00,,,0.00,weatherlink.com 1.10,2013-02-03 05:57:00,
2013-02-02 23:12:00,25.6,20.0,25.95,WNW,302,4.0,8.0,78,0.00,,,0.00,weatherlink.com 1.10,2013-02-03 06:12:00,
2013-02-02 23:27:00,24.5,19.0,25.96,WNW,293,6.0,9.0,80,0.00,,,0.00,weatherlink.com 1.10,2013-02-03 06:27:00,
2013-02-02 23:42:00,24.3,19.0,25.95,NW,315,7.0,12.0,79,0.00,,,0.00,weatherlink.com 1.10,2013-02-03 06:42:00,
2013-02-02 23:57:00,24.7,19.0,25.95,NW,311,10.0,12.0,80,0.00,,,0.00,weatherlink.com 1.10,2013-02-03 06:57:00,